createdAt,value
2019-03-04T00:02:27.707Z,95.10
2019-03-04T00:04:53.980Z,95.00
2019-03-04T00:07:20.332Z,95.00
2019-03-04T00:09:46.607Z,95.10
2019-03-04T00:12:12.864Z,95.30
2019-03-04T00:14:39.120Z,95.20
2019-03-04T00:17:05.500Z,95.10
2019-03-04T00:19:31.753Z,95.20
2019-03-04T00:21:58.199Z,95.40
2019-03-04T00:24:24.479Z,95.50
2019-03-04T00:26:50.731Z,95.40
2019-03-04T00:29:16.971Z,95.20
2019-03-04T00:31:43.256Z,95.20
2019-03-04T00:34:09.500Z,95.40
2019-03-04T00:36:35.743Z,95.40
2019-03-04T00:39:04.726Z,95.30
2019-03-04T00:41:30.975Z,95.30
2019-03-04T00:43:57.219Z,95.40
2019-03-04T00:46:23.524Z,95.40
2019-03-04T00:48:49.768Z,95.40
2019-03-04T00:51:16.044Z,95.40
2019-03-04T00:53:42.323Z,95.50
2019-03-04T00:56:08.587Z,95.50
2019-03-04T00:58:34.827Z,95.50
2019-03-04T01:01:01.100Z,95.50
2019-03-04T01:03:27.379Z,95.60
2019-03-04T01:05:53.637Z,95.50
2019-03-04T01:08:19.879Z,95.50
2019-03-04T01:10:46.156Z,95.50
2019-03-04T01:13:12.416Z,95.50
2019-03-04T01:15:38.685Z,95.60
2019-03-04T01:18:05.045Z,95.60
2019-03-04T01:20:31.306Z,95.60
2019-03-04T01:22:57.568Z,95.60
2019-03-04T01:25:23.841Z,95.60
2019-03-04T01:27:50.088Z,95.60
2019-03-04T01:30:21.226Z,95.60
2019-03-04T01:32:47.796Z,95.60
2019-03-04T01:35:14.055Z,95.60
2019-03-04T01:37:40.333Z,95.60
2019-03-04T01:40:09.984Z,95.90
2019-03-04T01:42:36.261Z,96.00
2019-03-04T01:45:05.012Z,95.60
2019-03-04T01:47:31.284Z,95.70
2019-03-04T01:49:57.565Z,95.70
2019-03-04T01:52:23.929Z,95.80
2019-03-04T01:54:50.203Z,95.80
2019-03-04T01:57:16.456Z,95.70
2019-03-04T01:59:42.736Z,95.80
2019-03-04T02:02:08.992Z,95.80
2019-03-04T02:04:35.265Z,96.00
2019-03-04T02:07:01.548Z,95.80
2019-03-04T02:09:27.806Z,95.80
2019-03-04T02:11:54.066Z,96.00
2019-03-04T02:14:20.429Z,95.80
2019-03-04T02:16:46.735Z,96.00
2019-03-04T02:19:12.931Z,96.00
2019-03-04T02:21:39.199Z,96.10
2019-03-04T02:24:19.996Z,96.10
2019-03-04T02:26:46.243Z,96.10
2019-03-04T02:29:12.624Z,96.00
2019-03-04T02:31:38.877Z,96.00
2019-03-04T02:34:05.174Z,96.20
2019-03-04T02:36:31.446Z,96.00
2019-03-04T02:38:57.697Z,95.70
2019-03-04T02:41:23.972Z,95.90
2019-03-04T02:43:50.228Z,96.00
2019-03-04T02:46:16.484Z,96.00
2019-03-04T02:48:42.871Z,95.80
2019-03-04T02:51:09.242Z,95.80
2019-03-04T02:53:35.504Z,95.80
2019-03-04T02:56:01.877Z,95.80
2019-03-04T02:58:28.132Z,95.80
2019-03-04T03:00:54.417Z,95.80
2019-03-04T03:03:20.694Z,95.70
2019-03-04T03:05:47.036Z,95.70
2019-03-04T03:08:13.307Z,95.70
2019-03-04T03:10:39.664Z,96.00
2019-03-04T03:13:05.916Z,96.30
2019-03-04T03:15:32.206Z,96.30
2019-03-04T03:17:58.435Z,96.40
2019-03-04T03:20:24.711Z,96.30
2019-03-04T03:22:50.985Z,96.20
2019-03-04T03:25:17.224Z,96.20
2019-03-04T03:27:43.500Z,96.20
2019-03-04T03:30:18.026Z,95.90
2019-03-04T03:32:44.307Z,95.60
2019-03-04T03:35:10.762Z,95.60
2019-03-04T03:37:37.105Z,95.50
2019-03-04T03:40:07.197Z,95.50
2019-03-04T03:42:33.544Z,95.40
2019-03-04T03:44:59.787Z,95.60
2019-03-04T03:47:26.083Z,95.40
2019-03-04T03:49:52.342Z,95.50
2019-03-04T03:52:18.648Z,95.60
2019-03-04T03:54:44.891Z,95.90
2019-03-04T03:57:11.169Z,96.00
2019-03-04T03:59:37.615Z,95.70
2019-03-04T04:02:04.068Z,95.60
2019-03-04T04:04:30.345Z,95.60
2019-03-04T04:06:56.610Z,95.50
2019-03-04T04:09:22.880Z,95.50
2019-03-04T04:11:49.133Z,95.60
2019-03-04T04:14:15.419Z,95.60
2019-03-04T04:16:41.658Z,95.80
2019-03-04T04:19:07.910Z,95.60
2019-03-04T04:21:34.186Z,95.40
2019-03-04T04:24:00.443Z,95.50
2019-03-04T04:26:26.722Z,95.40
2019-03-04T04:28:54.872Z,95.10
2019-03-04T04:31:21.443Z,95.20
2019-03-04T04:33:47.700Z,95.20
2019-03-04T04:36:14.171Z,95.30
2019-03-04T04:38:40.453Z,95.40
2019-03-04T04:41:06.733Z,95.00
2019-03-04T04:43:33.079Z,95.30
2019-03-04T04:45:59.327Z,95.70
2019-03-04T04:48:25.628Z,95.60
2019-03-04T04:50:51.873Z,95.60
2019-03-04T04:53:18.182Z,95.60
2019-03-04T04:55:44.423Z,95.90
2019-03-04T04:58:10.678Z,95.90
2019-03-04T05:00:36.967Z,95.90
2019-03-04T05:03:03.230Z,95.90
2019-03-04T05:05:29.575Z,95.70
2019-03-04T05:07:55.836Z,95.60
2019-03-04T05:10:23.203Z,95.60
2019-03-04T05:12:49.455Z,95.50
2019-03-04T05:15:16.339Z,95.40
2019-03-04T05:17:42.692Z,95.40
2019-03-04T05:20:15.690Z,95.40
2019-03-04T05:22:42.045Z,95.40
2019-03-04T05:25:08.816Z,95.50
2019-03-04T05:27:35.081Z,95.40
2019-03-04T05:30:01.528Z,95.30
2019-03-04T05:32:27.905Z,95.20
2019-03-04T05:34:54.148Z,95.00
2019-03-04T05:37:20.436Z,94.90
2019-03-04T05:39:46.691Z,94.90
2019-03-04T05:42:12.948Z,94.70
2019-03-04T05:44:39.228Z,94.60
2019-03-04T05:47:05.483Z,94.60
2019-03-04T05:49:31.765Z,94.60
2019-03-04T05:51:58.009Z,94.50
2019-03-04T05:54:24.288Z,94.50
2019-03-04T05:56:50.566Z,94.50
2019-03-04T05:59:20.059Z,94.50
2019-03-04T06:01:48.693Z,94.60
2019-03-04T06:04:14.975Z,94.60
2019-03-04T06:06:55.244Z,94.50
2019-03-04T06:09:21.520Z,94.60
2019-03-04T06:11:47.991Z,94.70
2019-03-04T06:14:14.269Z,94.60
2019-03-04T06:16:47.262Z,94.50
2019-03-04T06:19:08.675Z,94.60
2019-03-04T06:21:34.944Z,94.60
2019-03-04T06:24:01.398Z,94.70
2019-03-04T06:26:27.723Z,94.70
2019-03-04T06:28:54.077Z,94.70
2019-03-04T06:31:20.323Z,94.70
2019-03-04T06:33:46.613Z,94.70
2019-03-04T06:36:32.728Z,94.70
2019-03-04T06:38:59.104Z,94.70
2019-03-04T06:41:25.484Z,94.70
2019-03-04T06:43:51.727Z,94.70
2019-03-04T06:46:18.004Z,94.70
2019-03-04T06:48:44.360Z,94.60
2019-03-04T06:51:14.454Z,94.60
2019-03-04T06:53:53.750Z,94.80
2019-03-04T06:56:35.917Z,94.80
2019-03-04T06:59:11.979Z,94.90
2019-03-04T07:01:42.041Z,95.10
2019-03-04T07:04:18.191Z,95.40
2019-03-04T07:06:44.459Z,96.30
2019-03-04T07:09:10.944Z,96.30
2019-03-04T07:11:37.308Z,96.40
2019-03-04T07:14:03.901Z,96.60
2019-03-04T07:16:32.018Z,96.30
2019-03-04T07:18:58.600Z,96.10
2019-03-04T07:21:24.997Z,96.00
2019-03-04T07:23:51.243Z,95.90
2019-03-04T07:26:17.596Z,96.00
2019-03-04T07:28:43.977Z,96.00
2019-03-04T07:31:10.328Z,96.10
2019-03-04T07:33:36.602Z,96.10
2019-03-04T07:36:02.869Z,96.00
2019-03-04T07:38:35.955Z,96.00
2019-03-04T07:41:02.237Z,96.10
2019-03-04T07:43:28.509Z,96.20
2019-03-04T07:45:54.779Z,96.10
2019-03-04T07:48:21.040Z,96.00
2019-03-04T07:50:47.294Z,96.00
2019-03-04T07:53:13.597Z,96.00
2019-03-04T07:55:40.058Z,96.40
2019-03-04T07:58:06.340Z,96.10
2019-03-04T08:00:33.021Z,96.20
2019-03-04T08:02:59.276Z,96.00
2019-03-04T08:05:25.628Z,96.00
2019-03-04T08:07:58.492Z,96.00
2019-03-04T08:10:51.521Z,95.50
2019-03-04T08:13:27.474Z,95.60
2019-03-04T08:15:53.832Z,96.10
2019-03-04T08:18:20.185Z,95.80
2019-03-04T08:20:46.573Z,95.30
2019-03-04T08:23:12.966Z,95.70
2019-03-04T08:25:39.186Z,95.60
2019-03-04T08:28:06.770Z,95.30
2019-03-04T08:30:33.128Z,94.80
2019-03-04T08:32:59.389Z,94.00
2019-03-04T08:35:25.775Z,93.00
2019-03-04T08:37:52.046Z,92.70
2019-03-04T08:40:18.397Z,92.30
2019-03-04T08:42:44.782Z,92.40
2019-03-04T08:45:13.643Z,92.40
2019-03-04T08:47:40.104Z,92.40
2019-03-04T08:50:11.923Z,91.80
2019-03-04T08:52:38.413Z,90.20
2019-03-04T08:55:07.481Z,90.30
2019-03-04T08:57:33.760Z,90.80
2019-03-04T09:00:00.020Z,90.20
2019-03-04T09:02:26.300Z,89.50
2019-03-04T09:04:52.548Z,90.60
2019-03-04T09:07:18.814Z,91.30
2019-03-04T09:09:45.096Z,91.00
2019-03-04T09:12:11.372Z,91.00
2019-03-04T09:14:37.639Z,90.90
2019-03-04T09:17:03.975Z,90.80
2019-03-04T09:19:34.530Z,91.30
2019-03-04T09:22:00.792Z,89.10
2019-03-04T09:24:27.034Z,89.80
2019-03-04T09:26:53.400Z,87.60
2019-03-04T09:29:19.667Z,87.80
2019-03-04T09:31:45.977Z,86.00
2019-03-04T09:34:12.248Z,86.20
2019-03-04T09:36:38.615Z,84.50
2019-03-04T09:39:05.376Z,86.80
2019-03-04T09:41:31.664Z,84.70
2019-03-04T09:43:57.924Z,85.70
2019-03-04T09:46:24.273Z,86.30
2019-03-04T09:48:50.638Z,85.80
2019-03-04T09:51:24.085Z,83.60
2019-03-04T09:53:45.108Z,83.50
2019-03-04T09:56:11.351Z,83.30
2019-03-04T09:58:37.708Z,80.10
2019-03-04T10:01:10.724Z,79.20
2019-03-04T10:03:40.788Z,80.30
2019-03-04T10:06:13.832Z,79.70
2019-03-04T10:09:10.672Z,81.20
2019-03-04T10:11:49.898Z,82.40
2019-03-04T10:14:26.015Z,77.40
2019-03-04T10:16:59.023Z,76.30
2019-03-04T10:19:38.472Z,76.50
2019-03-04T10:22:11.259Z,79.60
2019-03-04T10:24:53.600Z,80.60
2019-03-04T10:27:32.920Z,80.30
2019-03-04T10:30:18.026Z,79.10
2019-03-04T10:32:57.015Z,75.70
2019-03-04T10:35:27.104Z,75.90
2019-03-04T10:38:22.833Z,78.00
2019-03-04T10:40:58.936Z,77.00
2019-03-04T10:43:58.189Z,75.90
2019-03-04T10:46:37.184Z,75.50
2019-03-04T10:49:03.687Z,73.80
2019-03-04T10:51:30.049Z,71.40
2019-03-04T10:53:56.320Z,72.70
2019-03-04T10:56:22.581Z,68.30
2019-03-04T10:58:48.860Z,73.00
2019-03-04T11:01:15.108Z,66.50
2019-03-04T11:03:41.381Z,61.70
2019-03-04T11:06:07.660Z,59.30
2019-03-04T11:08:33.923Z,56.90
2019-03-04T11:11:00.406Z,56.20
2019-03-04T11:13:26.770Z,56.60
2019-03-04T11:15:53.051Z,55.50
2019-03-04T11:18:19.344Z,54.80
2019-03-04T11:20:45.605Z,54.20
2019-03-04T11:23:11.984Z,55.50
2019-03-04T11:25:38.336Z,54.00
2019-03-04T11:28:04.716Z,56.20
2019-03-04T11:30:31.983Z,51.70
2019-03-04T11:32:58.260Z,53.30
2019-03-04T11:35:24.527Z,52.40
2019-03-04T11:37:50.779Z,52.00
2019-03-04T11:40:22.778Z,53.40
2019-03-04T11:42:50.606Z,52.10
2019-03-04T11:45:18.579Z,52.90
2019-03-04T11:47:44.980Z,49.50
2019-03-04T11:50:15.598Z,50.40
2019-03-04T11:52:42.057Z,49.60
2019-03-04T11:55:11.353Z,50.10
2019-03-04T11:57:37.708Z,49.80
2019-03-04T12:00:13.218Z,48.80
2019-03-04T12:02:39.560Z,47.80
2019-03-04T12:05:09.228Z,48.70
2019-03-04T12:07:35.609Z,48.90
2019-03-04T12:10:04.762Z,49.10
2019-03-04T12:12:31.052Z,48.90
2019-03-04T12:14:57.306Z,48.90
2019-03-04T12:17:23.682Z,51.10
2019-03-04T12:19:50.065Z,51.70
2019-03-04T12:22:16.308Z,50.60
2019-03-04T12:24:42.676Z,50.10
2019-03-04T12:27:08.933Z,50.90
2019-03-04T12:29:35.316Z,51.60
2019-03-04T12:32:03.471Z,52.80
2019-03-04T12:34:29.726Z,53.80
2019-03-04T12:36:56.103Z,54.70
2019-03-04T12:39:22.360Z,54.20
2019-03-04T12:41:49.762Z,55.00
2019-03-04T12:44:16.203Z,55.40
2019-03-04T12:46:42.492Z,55.50
2019-03-04T12:49:08.903Z,55.00
2019-03-04T12:51:35.148Z,55.80
2019-03-04T12:54:01.462Z,57.10
2019-03-04T12:56:27.723Z,57.00
2019-03-04T12:58:53.971Z,57.40
2019-03-04T13:01:20.367Z,57.50
2019-03-04T13:03:46.657Z,57.30
2019-03-04T13:06:13.069Z,56.80
2019-03-04T13:08:39.447Z,56.30
2019-03-04T13:11:05.730Z,56.50
2019-03-04T13:13:32.006Z,55.70
2019-03-04T13:15:59.999Z,51.30
2019-03-04T13:18:26.491Z,51.20
2019-03-04T13:20:52.872Z,49.90
2019-03-04T13:23:19.130Z,50.30
2019-03-04T13:25:45.400Z,49.20
2019-03-04T13:28:11.792Z,46.90
2019-03-04T13:30:39.449Z,47.40
2019-03-04T13:33:05.949Z,47.50
2019-03-04T13:35:38.726Z,46.50
2019-03-04T13:38:05.252Z,45.60
2019-03-04T13:40:31.731Z,46.00
2019-03-04T13:42:58.181Z,46.20
2019-03-04T13:45:25.822Z,46.90
2019-03-04T13:47:52.183Z,47.20
2019-03-04T13:50:22.288Z,47.90
2019-03-04T13:52:48.709Z,47.00
2019-03-04T13:55:15.371Z,46.30
2019-03-04T13:57:41.860Z,46.50
2019-03-04T14:00:15.194Z,47.50
2019-03-04T14:02:41.541Z,47.20
2019-03-04T14:05:09.845Z,48.40
2019-03-04T14:07:36.199Z,49.20
2019-03-04T14:10:05.489Z,49.70
2019-03-04T14:12:31.856Z,49.50
2019-03-04T14:14:58.239Z,50.40
2019-03-04T14:17:24.522Z,50.50
2019-03-04T14:19:50.795Z,51.70
2019-03-04T14:22:17.153Z,51.60
2019-03-04T14:24:43.457Z,52.60
2019-03-04T14:27:09.907Z,51.10
2019-03-04T14:29:36.204Z,51.20
2019-03-04T14:32:02.588Z,51.50
2019-03-04T14:34:28.875Z,51.70
2019-03-04T14:36:55.135Z,51.80
2019-03-04T14:39:21.528Z,52.80
2019-03-04T14:41:47.888Z,53.30
2019-03-04T14:44:14.181Z,53.80
2019-03-04T14:46:40.469Z,53.80
2019-03-04T14:49:06.830Z,54.00
2019-03-04T14:51:33.120Z,53.80
2019-03-04T14:53:59.376Z,54.80
2019-03-04T14:56:25.644Z,54.80
2019-03-04T14:59:09.776Z,54.50
2019-03-04T15:01:20.143Z,54.50
2019-03-04T15:03:46.524Z,54.60
2019-03-04T15:06:12.766Z,53.70
2019-03-04T15:08:39.165Z,53.30
2019-03-04T15:11:05.577Z,52.70
2019-03-04T15:13:31.963Z,52.90
2019-03-04T15:16:01.362Z,52.60
2019-03-04T15:18:26.512Z,53.60
2019-03-04T15:20:52.780Z,53.80
2019-03-04T15:23:19.073Z,53.70
2019-03-04T15:25:45.432Z,53.70
2019-03-04T15:28:23.612Z,54.30
2019-03-04T15:31:01.624Z,54.20
2019-03-04T15:33:28.103Z,54.10
2019-03-04T15:35:54.603Z,54.80
2019-03-04T15:38:21.075Z,54.90
2019-03-04T15:40:47.468Z,55.00
2019-03-04T15:43:13.960Z,56.10
2019-03-04T15:45:42.265Z,57.20
2019-03-04T15:48:08.671Z,57.50
2019-03-04T15:50:35.039Z,56.80
2019-03-04T15:53:01.530Z,57.40
2019-03-04T15:55:27.980Z,58.70
2019-03-04T15:57:54.385Z,58.10
2019-03-04T16:00:21.141Z,58.10
2019-03-04T16:02:48.846Z,57.90
2019-03-04T16:05:16.397Z,58.00
2019-03-04T16:07:42.947Z,58.60
2019-03-04T16:10:17.212Z,59.40
2019-03-04T16:12:43.800Z,59.10
2019-03-04T16:15:15.949Z,59.10
2019-03-04T16:17:42.404Z,59.50
2019-03-04T16:20:16.079Z,59.10
2019-03-04T16:22:39.351Z,59.40
2019-03-04T16:25:07.752Z,59.60
2019-03-04T16:27:34.099Z,60.00
2019-03-04T16:30:00.476Z,60.30
2019-03-04T16:32:26.862Z,60.40
2019-03-04T16:34:53.099Z,60.30
2019-03-04T16:37:19.683Z,60.90
2019-03-04T16:39:45.957Z,61.00
2019-03-04T16:42:13.236Z,62.00
2019-03-04T16:44:40.146Z,62.00
2019-03-04T16:47:06.496Z,62.30
2019-03-04T16:49:32.743Z,62.60
2019-03-04T16:51:59.113Z,63.00
2019-03-04T16:54:25.502Z,63.00
2019-03-04T16:56:51.773Z,63.70
2019-03-04T16:59:18.025Z,63.60
2019-03-04T17:01:44.316Z,63.80
2019-03-04T17:04:10.569Z,63.70
2019-03-04T17:06:36.951Z,64.00
2019-03-04T17:09:07.031Z,63.70
2019-03-04T17:11:33.325Z,63.40
2019-03-04T17:13:59.743Z,63.20
2019-03-04T17:16:26.028Z,63.30
2019-03-04T17:18:52.260Z,63.80
2019-03-04T17:21:18.742Z,64.00
2019-03-04T17:23:45.108Z,63.40
2019-03-04T17:26:11.894Z,63.40
2019-03-04T17:28:38.148Z,63.50
2019-03-04T17:31:04.612Z,63.30
2019-03-04T17:33:31.001Z,63.10
2019-03-04T17:35:57.264Z,63.00
2019-03-04T17:38:23.566Z,63.20
2019-03-04T17:40:50.072Z,63.20
2019-03-04T17:43:16.447Z,63.10
2019-03-04T17:45:42.986Z,63.30
2019-03-04T17:48:09.279Z,63.40
2019-03-04T17:50:41.460Z,63.30
2019-03-04T17:53:09.944Z,63.40
2019-03-04T17:55:36.318Z,63.10
2019-03-04T17:58:02.981Z,64.00
2019-03-04T18:00:29.796Z,63.80
2019-03-04T18:02:56.094Z,64.10
2019-03-04T18:05:22.452Z,65.10
2019-03-04T18:07:48.709Z,64.70
2019-03-04T18:10:17.868Z,64.70
2019-03-04T18:12:45.852Z,64.60
2019-03-04T18:15:25.246Z,64.80
2019-03-04T18:17:51.609Z,64.50
2019-03-04T18:20:18.071Z,65.40
2019-03-04T18:22:44.664Z,65.60
2019-03-04T18:25:32.638Z,66.00
2019-03-04T18:28:02.751Z,66.10
2019-03-04T18:30:44.713Z,66.00
2019-03-04T18:33:20.865Z,65.80
2019-03-04T18:36:00.203Z,65.50
2019-03-04T18:38:46.921Z,65.40
2019-03-04T18:41:31.587Z,65.70
2019-03-04T18:44:18.557Z,66.10
2019-03-04T18:46:54.560Z,66.20
2019-03-04T18:49:21.002Z,65.30
2019-03-04T18:51:47.472Z,64.30
2019-03-04T18:54:13.715Z,64.50
2019-03-04T18:56:41.141Z,63.00
2019-03-04T18:59:07.624Z,61.40
2019-03-04T19:01:34.073Z,60.60
2019-03-04T19:04:00.397Z,59.80
2019-03-04T19:06:26.740Z,59.30
2019-03-04T19:08:53.200Z,58.60
2019-03-04T19:11:19.688Z,60.00
2019-03-04T19:13:46.098Z,61.00
2019-03-04T19:16:12.602Z,64.00
2019-03-04T19:18:39.460Z,70.70
2019-03-04T19:21:05.998Z,76.60
2019-03-04T19:23:32.265Z,78.30
2019-03-04T19:25:58.570Z,77.40
2019-03-04T19:28:24.933Z,77.60
2019-03-04T19:30:51.397Z,78.50
2019-03-04T19:33:17.780Z,79.30
2019-03-04T19:35:44.152Z,80.40
2019-03-04T19:38:10.559Z,81.40
2019-03-04T19:40:37.303Z,82.20
2019-03-04T19:43:03.693Z,82.70
2019-03-04T19:45:30.328Z,83.60
2019-03-04T19:47:56.711Z,83.80
2019-03-04T19:50:23.019Z,84.80
2019-03-04T19:52:49.406Z,85.50
2019-03-04T19:55:16.933Z,86.20
2019-03-04T19:57:43.603Z,88.40
2019-03-04T20:00:26.354Z,90.30
2019-03-04T20:02:54.022Z,91.20
2019-03-04T20:05:22.083Z,91.80
2019-03-04T20:07:48.359Z,92.20
2019-03-04T20:10:15.742Z,92.20
2019-03-04T20:12:42.114Z,92.20
2019-03-04T20:15:20.989Z,92.10
2019-03-04T20:17:47.464Z,91.90
2019-03-04T20:20:13.820Z,92.20
2019-03-04T20:22:40.085Z,92.10
2019-03-04T20:25:09.268Z,91.80
2019-03-04T20:27:35.523Z,91.70
2019-03-04T20:30:03.116Z,92.00
2019-03-04T20:32:29.471Z,91.70
2019-03-04T20:34:55.767Z,91.90
2019-03-04T20:37:24.130Z,92.20
2019-03-04T20:39:50.411Z,92.20
2019-03-04T20:42:17.737Z,92.40
2019-03-04T20:44:43.967Z,92.60
2019-03-04T20:47:10.389Z,92.30
2019-03-04T20:49:36.719Z,93.10
2019-03-04T20:52:03.173Z,92.50
2019-03-04T20:54:29.458Z,91.70
2019-03-04T20:56:55.938Z,92.20
2019-03-04T20:59:22.317Z,92.00
2019-03-04T21:01:48.673Z,91.90
2019-03-04T21:04:15.150Z,91.80
2019-03-04T21:06:41.699Z,91.80
2019-03-04T21:09:08.985Z,91.10
2019-03-04T21:11:35.503Z,91.20
2019-03-04T21:14:01.793Z,91.40
2019-03-04T21:16:28.021Z,91.50
2019-03-04T21:18:54.399Z,91.90
2019-03-04T21:21:20.759Z,91.50
2019-03-04T21:23:48.617Z,91.40
2019-03-04T21:26:18.180Z,90.80
2019-03-04T21:29:00.555Z,90.70
2019-03-04T21:31:42.562Z,90.80
2019-03-04T21:34:15.655Z,90.90
2019-03-04T21:37:05.451Z,90.90
2019-03-04T21:39:38.369Z,90.90
2019-03-04T21:42:27.789Z,91.00
2019-03-04T21:45:14.316Z,91.30
2019-03-04T21:48:02.479Z,91.40
2019-03-04T21:50:44.436Z,91.60
2019-03-04T21:53:23.051Z,91.90
2019-03-04T21:55:56.153Z,92.30
2019-03-04T21:58:22.421Z,92.20
2019-03-04T22:00:52.475Z,92.30
2019-03-04T22:03:19.765Z,92.30
2019-03-04T22:05:50.239Z,92.40
2019-03-04T22:08:14.700Z,92.50
2019-03-04T22:10:41.202Z,92.50
2019-03-04T22:13:07.667Z,92.60
2019-03-04T22:15:33.949Z,92.70
2019-03-04T22:18:00.408Z,92.90
2019-03-04T22:20:26.652Z,92.80
2019-03-04T22:22:53.111Z,93.10
2019-03-04T22:25:20.286Z,92.90
2019-03-04T22:27:47.065Z,92.90
2019-03-04T22:30:16.640Z,93.20
2019-03-04T22:32:43.228Z,93.10
2019-03-04T22:35:11.878Z,93.20
2019-03-04T22:37:38.345Z,93.40
2019-03-04T22:40:10.870Z,93.30
2019-03-04T22:42:37.258Z,93.30
2019-03-04T22:45:07.333Z,93.30
2019-03-04T22:47:33.738Z,93.30
2019-03-04T22:50:00.023Z,93.40
2019-03-04T22:52:26.288Z,93.50
2019-03-04T22:54:52.644Z,93.50
2019-03-04T22:57:18.923Z,93.40
2019-03-04T22:59:45.189Z,93.30
2019-03-04T23:02:12.222Z,93.20
2019-03-04T23:04:38.636Z,93.40
2019-03-04T23:07:06.687Z,93.60
2019-03-04T23:09:36.761Z,93.70
2019-03-04T23:12:18.907Z,93.60
2019-03-04T23:14:46.569Z,93.60
2019-03-04T23:17:12.858Z,93.60
2019-03-04T23:19:39.108Z,93.70
2019-03-04T23:22:05.565Z,93.60
2019-03-04T23:24:31.860Z,93.60
2019-03-04T23:26:58.115Z,93.90
2019-03-04T23:29:24.376Z,93.90
2019-03-04T23:31:50.655Z,93.70
2019-03-04T23:34:17.020Z,93.60
2019-03-04T23:36:43.375Z,93.70
2019-03-04T23:39:09.846Z,93.60
2019-03-04T23:41:36.101Z,93.30
2019-03-04T23:44:02.784Z,93.40
2019-03-04T23:46:29.139Z,93.20
2019-03-04T23:48:55.555Z,93.20
2019-03-04T23:51:21.807Z,93.10
2019-03-04T23:53:48.082Z,92.60
2019-03-04T23:56:14.376Z,92.50
2019-03-04T23:58:40.668Z,92.50
